sensor_id;sensor_type;location;lat;lon;timestamp;temperature;humidity
74946;HTU21D;63509;45.250;38.102;2022-11-15T00:01:57;2.25;75.84
74946;HTU21D;63509;45.250;38.102;2022-11-15T00:04:41;2.23;75.79
74946;HTU21D;63509;45.250;38.102;2022-11-15T00:07:26;2.19;75.82
74946;HTU21D;63509;45.250;38.102;2022-11-15T00:10:10;2.15;75.81
74946;HTU21D;63509;45.250;38.102;2022-11-15T00:12:55;2.11;75.81
74946;HTU21D;63509;45.250;38.102;2022-11-15T00:15:40;2.09;75.83
74946;HTU21D;63509;45.250;38.102;2022-11-15T00:18:26;2.07;75.82
74946;HTU21D;63509;45.250;38.102;2022-11-15T00:21:12;2.06;75.83
74946;HTU21D;63509;45.250;38.102;2022-11-15T00:23:58;2.08;75.74
74946;HTU21D;63509;45.250;38.102;2022-11-15T00:26:42;2.06;75.71
74946;HTU21D;63509;45.250;38.102;2022-11-15T00:29:27;2.01;75.71
74946;HTU21D;63509;45.250;38.102;2022-11-15T00:32:12;2.00;75.75
74946;HTU21D;63509;45.250;38.102;2022-11-15T00:34:56;1.99;75.78
74946;HTU21D;63509;45.250;38.102;2022-11-15T00:37:41;2.01;75.79
74946;HTU21D;63509;45.250;38.102;2022-11-15T00:40:25;2.01;75.79
74946;HTU21D;63509;45.250;38.102;2022-11-15T00:43:10;2.01;75.76
74946;HTU21D;63509;45.250;38.102;2022-11-15T00:45:55;2.00;75.79
74946;HTU21D;63509;45.250;38.102;2022-11-15T00:48:39;2.01;75.88
74946;HTU21D;63509;45.250;38.102;2022-11-15T00:51:24;2.01;75.86
74946;HTU21D;63509;45.250;38.102;2022-11-15T00:54:08;2.01;75.85
74946;HTU21D;63509;45.250;38.102;2022-11-15T00:56:53;2.03;75.83
74946;HTU21D;63509;45.250;38.102;2022-11-15T00:59:37;2.03;75.82
74946;HTU21D;63509;45.250;38.102;2022-11-15T01:02:22;2.06;75.81
74946;HTU21D;63509;45.250;38.102;2022-11-15T01:05:07;2.06;75.75
74946;HTU21D;63509;45.250;38.102;2022-11-15T01:07:55;2.05;75.73
74946;HTU21D;63509;45.250;38.102;2022-11-15T01:10:40;2.02;75.73
74946;HTU21D;63509;45.250;38.102;2022-11-15T01:13:25;2.03;75.75
74946;HTU21D;63509;45.250;38.102;2022-11-15T01:16:15;2.03;75.75
74946;HTU21D;63509;45.250;38.102;2022-11-15T01:19:02;2.01;75.76
74946;HTU21D;63509;45.250;38.102;2022-11-15T01:21:49;2.00;75.76
74946;HTU21D;63509;45.250;38.102;2022-11-15T01:24:34;1.99;75.82
74946;HTU21D;63509;45.250;38.102;2022-11-15T01:27:18;1.97;75.83
74946;HTU21D;63509;45.250;38.102;2022-11-15T01:30:03;1.96;75.89
74946;HTU21D;63509;45.250;38.102;2022-11-15T01:32:51;1.97;75.83
74946;HTU21D;63509;45.250;38.102;2022-11-15T01:35:38;1.94;75.82
74946;HTU21D;63509;45.250;38.102;2022-11-15T01:38:23;1.93;75.82
74946;HTU21D;63509;45.250;38.102;2022-11-15T01:41:26;1.91;75.79
74946;HTU21D;63509;45.250;38.102;2022-11-15T01:44:41;1.85;75.81
74946;HTU21D;63509;45.250;38.102;2022-11-15T01:47:38;1.81;75.85
74946;HTU21D;63509;45.250;38.102;2022-11-15T01:50:30;1.78;75.87
74946;HTU21D;63509;45.250;38.102;2022-11-15T01:53:17;1.76;75.85
74946;HTU21D;63509;45.250;38.102;2022-11-15T01:56:07;1.70;75.88
74946;HTU21D;63509;45.250;38.102;2022-11-15T01:58:52;1.69;75.84
74946;HTU21D;63509;45.250;38.102;2022-11-15T02:01:37;1.64;75.76
74946;HTU21D;63509;45.250;38.102;2022-11-15T02:04:28;1.58;75.81
74946;HTU21D;63509;45.250;38.102;2022-11-15T02:07:16;1.55;75.86
74946;HTU21D;63509;45.250;38.102;2022-11-15T02:10:17;1.53;75.92
74946;HTU21D;63509;45.250;38.102;2022-11-15T02:13:02;1.53;75.94
74946;HTU21D;63509;45.250;38.102;2022-11-15T02:24:57;1.54;75.92
74946;HTU21D;63509;45.250;38.102;2022-11-15T02:28:10;1.51;75.86
74946;HTU21D;63509;45.250;38.102;2022-11-15T02:31:10;1.51;75.91
74946;HTU21D;63509;45.250;38.102;2022-11-15T02:40:43;1.55;76.02
74946;HTU21D;63509;45.250;38.102;2022-11-15T02:43:51;1.56;75.95
74946;HTU21D;63509;45.250;38.102;2022-11-15T02:47:03;1.55;75.90
74946;HTU21D;63509;45.250;38.102;2022-11-15T02:50:05;1.54;75.95
74946;HTU21D;63509;45.250;38.102;2022-11-15T02:52:51;1.55;75.98
74946;HTU21D;63509;45.250;38.102;2022-11-15T02:55:44;1.56;75.98
74946;HTU21D;63509;45.250;38.102;2022-11-15T02:58:38;1.57;76.02
74946;HTU21D;63509;45.250;38.102;2022-11-15T03:04:54;1.64;76.09
74946;HTU21D;63509;45.250;38.102;2022-11-15T03:07:49;1.68;76.08
74946;HTU21D;63509;45.250;38.102;2022-11-15T03:10:46;1.72;76.05
74946;HTU21D;63509;45.250;38.102;2022-11-15T03:16:44;1.76;76.12
74946;HTU21D;63509;45.250;38.102;2022-11-15T03:19:40;1.78;76.10
74946;HTU21D;63509;45.250;38.102;2022-11-15T03:22:30;1.81;76.08
74946;HTU21D;63509;45.250;38.102;2022-11-15T03:25:20;1.83;76.10
74946;HTU21D;63509;45.250;38.102;2022-11-15T03:28:09;1.84;76.12
74946;HTU21D;63509;45.250;38.102;2022-11-15T03:30:55;1.87;76.15
74946;HTU21D;63509;45.250;38.102;2022-11-15T03:33:41;1.90;76.16
74946;HTU21D;63509;45.250;38.102;2022-11-15T03:36:27;1.93;76.18
74946;HTU21D;63509;45.250;38.102;2022-11-15T03:39:12;1.95;76.19
74946;HTU21D;63509;45.250;38.102;2022-11-15T03:42:27;1.98;76.24
74946;HTU21D;63509;45.250;38.102;2022-11-15T03:45:17;2.00;76.20
74946;HTU21D;63509;45.250;38.102;2022-11-15T03:48:16;2.02;76.21
74946;HTU21D;63509;45.250;38.102;2022-11-15T03:51:04;2.00;76.18
74946;HTU21D;63509;45.250;38.102;2022-11-15T03:53:49;1.97;76.29
74946;HTU21D;63509;45.250;38.102;2022-11-15T03:56:33;1.98;76.35
74946;HTU21D;63509;45.250;38.102;2022-11-15T03:59:18;1.99;76.37
74946;HTU21D;63509;45.250;38.102;2022-11-15T04:02:02;2.02;76.33
74946;HTU21D;63509;45.250;38.102;2022-11-15T04:04:47;2.00;76.34
74946;HTU21D;63509;45.250;38.102;2022-11-15T04:07:32;1.94;76.41
74946;HTU21D;63509;45.250;38.102;2022-11-15T04:10:16;1.94;76.47
74946;HTU21D;63509;45.250;38.102;2022-11-15T04:13:02;1.93;76.54
74946;HTU21D;63509;45.250;38.102;2022-11-15T04:15:47;1.94;76.53
74946;HTU21D;63509;45.250;38.102;2022-11-15T04:18:32;1.96;76.55
74946;HTU21D;63509;45.250;38.102;2022-11-15T04:21:16;1.99;76.56
74946;HTU21D;63509;45.250;38.102;2022-11-15T04:24:19;2.01;76.57
74946;HTU21D;63509;45.250;38.102;2022-11-15T04:27:04;2.05;76.60
74946;HTU21D;63509;45.250;38.102;2022-11-15T04:29:49;2.07;76.63
74946;HTU21D;63509;45.250;38.102;2022-11-15T04:32:33;2.09;76.68
74946;HTU21D;63509;45.250;38.102;2022-11-15T04:35:18;2.09;76.67
74946;HTU21D;63509;45.250;38.102;2022-11-15T04:38:04;2.12;76.73
74946;HTU21D;63509;45.250;38.102;2022-11-15T04:40:49;2.14;76.74
74946;HTU21D;63509;45.250;38.102;2022-11-15T04:43:34;2.14;76.77
74946;HTU21D;63509;45.250;38.102;2022-11-15T04:46:18;2.17;76.81
74946;HTU21D;63509;45.250;38.102;2022-11-15T04:49:03;2.20;76.79
74946;HTU21D;63509;45.250;38.102;2022-11-15T04:51:48;2.22;76.81
74946;HTU21D;63509;45.250;38.102;2022-11-15T04:54:33;2.23;76.84
74946;HTU21D;63509;45.250;38.102;2022-11-15T04:57:18;2.25;76.86
74946;HTU21D;63509;45.250;38.102;2022-11-15T05:00:07;2.28;76.87
74946;HTU21D;63509;45.250;38.102;2022-11-15T05:02:52;2.28;76.94
74946;HTU21D;63509;45.250;38.102;2022-11-15T05:05:57;2.29;76.95
74946;HTU21D;63509;45.250;38.102;2022-11-15T05:08:43;2.28;76.99
74946;HTU21D;63509;45.250;38.102;2022-11-15T05:11:27;2.29;77.04
74946;HTU21D;63509;45.250;38.102;2022-11-15T05:14:12;2.28;77.05
74946;HTU21D;63509;45.250;38.102;2022-11-15T05:16:57;2.26;77.11
74946;HTU21D;63509;45.250;38.102;2022-11-15T05:19:41;2.26;77.20
74946;HTU21D;63509;45.250;38.102;2022-11-15T05:22:26;2.26;77.23
74946;HTU21D;63509;45.250;38.102;2022-11-15T05:25:11;2.26;77.29
74946;HTU21D;63509;45.250;38.102;2022-11-15T05:27:55;2.26;77.39
74946;HTU21D;63509;45.250;38.102;2022-11-15T05:30:40;2.29;77.40
74946;HTU21D;63509;45.250;38.102;2022-11-15T05:33:24;2.31;77.47
74946;HTU21D;63509;45.250;38.102;2022-11-15T05:36:21;2.37;77.50
74946;HTU21D;63509;45.250;38.102;2022-11-15T05:39:08;2.40;77.47
74946;HTU21D;63509;45.250;38.102;2022-11-15T05:41:57;2.41;77.51
74946;HTU21D;63509;45.250;38.102;2022-11-15T05:44:47;2.43;77.52
74946;HTU21D;63509;45.250;38.102;2022-11-15T05:47:33;2.45;77.53
74946;HTU21D;63509;45.250;38.102;2022-11-15T05:50:19;2.47;77.56
74946;HTU21D;63509;45.250;38.102;2022-11-15T05:53:04;2.50;77.59
74946;HTU21D;63509;45.250;38.102;2022-11-15T05:55:50;2.56;77.64
74946;HTU21D;63509;45.250;38.102;2022-11-15T05:58:36;2.57;77.72
74946;HTU21D;63509;45.250;38.102;2022-11-15T06:01:21;2.59;77.73
74946;HTU21D;63509;45.250;38.102;2022-11-15T06:04:06;2.66;77.82
74946;HTU21D;63509;45.250;38.102;2022-11-15T06:06:51;2.71;77.88
74946;HTU21D;63509;45.250;38.102;2022-11-15T06:09:35;2.76;77.95
74946;HTU21D;63509;45.250;38.102;2022-11-15T06:12:20;2.83;78.06
74946;HTU21D;63509;45.250;38.102;2022-11-15T06:15:05;2.89;78.14
74946;HTU21D;63509;45.250;38.102;2022-11-15T06:17:50;2.96;78.23
74946;HTU21D;63509;45.250;38.102;2022-11-15T06:20:34;3.02;78.34
74946;HTU21D;63509;45.250;38.102;2022-11-15T06:23:19;3.08;78.40
74946;HTU21D;63509;45.250;38.102;2022-11-15T06:26:03;3.16;78.46
74946;HTU21D;63509;45.250;38.102;2022-11-15T06:28:48;3.17;78.36
74946;HTU21D;63509;45.250;38.102;2022-11-15T06:31:34;3.18;78.34
74946;HTU21D;63509;45.250;38.102;2022-11-15T06:34:19;3.21;78.43
74946;HTU21D;63509;45.250;38.102;2022-11-15T06:37:03;3.27;78.49
74946;HTU21D;63509;45.250;38.102;2022-11-15T06:39:48;3.32;78.58
74946;HTU21D;63509;45.250;38.102;2022-11-15T06:42:32;3.42;78.69
74946;HTU21D;63509;45.250;38.102;2022-11-15T06:45:17;3.52;78.73
74946;HTU21D;63509;45.250;38.102;2022-11-15T06:48:01;3.55;78.79
74946;HTU21D;63509;45.250;38.102;2022-11-15T06:50:53;3.60;78.96
74946;HTU21D;63509;45.250;38.102;2022-11-15T06:53:38;3.68;79.03
74946;HTU21D;63509;45.250;38.102;2022-11-15T06:56:23;3.77;79.26
74946;HTU21D;63509;45.250;38.102;2022-11-15T06:59:08;3.94;79.36
74946;HTU21D;63509;45.250;38.102;2022-11-15T07:01:53;4.07;79.34
74946;HTU21D;63509;45.250;38.102;2022-11-15T07:04:37;4.17;79.41
74946;HTU21D;63509;45.250;38.102;2022-11-15T07:07:22;4.28;79.45
74946;HTU21D;63509;45.250;38.102;2022-11-15T07:10:07;4.32;79.43
74946;HTU21D;63509;45.250;38.102;2022-11-15T07:12:53;4.35;79.53
74946;HTU21D;63509;45.250;38.102;2022-11-15T07:15:37;4.42;79.65
74946;HTU21D;63509;45.250;38.102;2022-11-15T07:18:22;4.47;79.75
74946;HTU21D;63509;45.250;38.102;2022-11-15T07:21:08;4.54;79.91
74946;HTU21D;63509;45.250;38.102;2022-11-15T07:23:53;4.66;80.04
74946;HTU21D;63509;45.250;38.102;2022-11-15T07:26:37;4.82;80.25
74946;HTU21D;63509;45.250;38.102;2022-11-15T07:29:22;5.02;80.34
74946;HTU21D;63509;45.250;38.102;2022-11-15T07:32:06;5.19;80.44
74946;HTU21D;63509;45.250;38.102;2022-11-15T07:34:51;5.38;80.62
74946;HTU21D;63509;45.250;38.102;2022-11-15T07:37:35;5.63;80.78
74946;HTU21D;63509;45.250;38.102;2022-11-15T07:40:20;5.84;80.78
74946;HTU21D;63509;45.250;38.102;2022-11-15T07:43:07;5.99;80.85
74946;HTU21D;63509;45.250;38.102;2022-11-15T07:45:51;6.12;80.84
74946;HTU21D;63509;45.250;38.102;2022-11-15T07:48:37;6.25;80.94
74946;HTU21D;63509;45.250;38.102;2022-11-15T07:51:23;6.41;81.00
74946;HTU21D;63509;45.250;38.102;2022-11-15T07:54:08;6.49;81.02
74946;HTU21D;63509;45.250;38.102;2022-11-15T07:56:53;6.54;81.05
74946;HTU21D;63509;45.250;38.102;2022-11-15T07:59:37;6.63;81.08
74946;HTU21D;63509;45.250;38.102;2022-11-15T08:02:22;6.74;81.13
74946;HTU21D;63509;45.250;38.102;2022-11-15T08:05:07;6.99;81.37
74946;HTU21D;63509;45.250;38.102;2022-11-15T08:07:51;7.23;81.36
74946;HTU21D;63509;45.250;38.102;2022-11-15T08:10:36;7.43;81.45
74946;HTU21D;63509;45.250;38.102;2022-11-15T08:13:21;7.64;81.54
74946;HTU21D;63509;45.250;38.102;2022-11-15T08:16:06;7.84;81.64
74946;HTU21D;63509;45.250;38.102;2022-11-15T08:18:51;8.04;81.76
74946;HTU21D;63509;45.250;38.102;2022-11-15T08:21:35;8.17;81.84
74946;HTU21D;63509;45.250;38.102;2022-11-15T08:24:19;8.32;81.94
74946;HTU21D;63509;45.250;38.102;2022-11-15T08:27:04;8.48;82.23
74946;HTU21D;63509;45.250;38.102;2022-11-15T08:29:49;8.63;82.29
74946;HTU21D;63509;45.250;38.102;2022-11-15T08:32:34;8.75;82.35
74946;HTU21D;63509;45.250;38.102;2022-11-15T08:35:20;8.85;82.39
74946;HTU21D;63509;45.250;38.102;2022-11-15T08:38:04;8.90;82.41
74946;HTU21D;63509;45.250;38.102;2022-11-15T08:40:51;9.01;82.58
74946;HTU21D;63509;45.250;38.102;2022-11-15T08:43:36;9.08;82.50
